Time;durP1;ratioP1;P1;durP2;ratioP2;P2;SDS_P1;SDS_P2;PMS_P1;PMS_P2;Temp;Humidity;BMP_temperature;BMP_pressure;BME280_temperature;BME280_humidity;BME280_pressure;Samples;Min_cycle;Max_cycle;Signal;HPM_P1;HPM_P2
2021/12/21 00:00:28;;;;;;;9.30;4.43;;;15.00;77.70;;;;;;1981636;28;20175;-75
2021/12/21 00:01:27;;;;;;;9.63;3.83;;;15.00;77.70;;;;;;1981673;28;20175;-75
2021/12/21 00:02:25;;;;;;;11.73;4.80;;;15.00;77.70;;;;;;1981563;28;20178;-74
2021/12/21 00:03:24;;;;;;;7.30;4.50;;;14.90;77.60;;;;;;1981532;28;20534;-75
2021/12/21 00:04:22;;;;;;;10.67;4.27;;;14.90;77.90;;;;;;1981424;28;20266;-74
2021/12/21 00:05:27;;;;;;;8.07;5.07;;;15.00;78.00;;;;;;1981624;28;20262;-76
2021/12/21 00:06:25;;;;;;;11.18;4.97;;;15.00;77.90;;;;;;1981366;28;20195;-75
2021/12/21 00:07:24;;;;;;;7.80;4.30;;;15.00;77.70;;;;;;1981564;28;20279;-76
2021/12/21 00:08:23;;;;;;;10.83;4.20;;;15.00;77.70;;;;;;1981409;28;20259;-74
2021/12/21 00:09:21;;;;;;;9.17;4.67;;;15.00;77.90;;;;;;1981441;28;20711;-75
2021/12/21 00:10:23;;;;;;;11.60;4.67;;;15.00;77.90;;;;;;1981387;28;20443;-75
2021/12/21 00:11:22;;;;;;;6.10;3.50;;;15.00;77.80;;;;;;1981024;29;20183;-76
2021/12/21 00:12:24;;;;;;;6.83;5.20;;;15.00;78.00;;;;;;1980736;29;20194;-74
2021/12/21 00:14:35;;;;;;;8.07;4.10;;;15.00;78.10;;;;;;1980755;28;20206;-74
2021/12/21 00:15:47;;;;;;;7.57;4.50;;;15.00;78.00;;;;;;1981603;28;20210;-75
2021/12/21 00:17:04;;;;;;;9.35;5.10;;;15.00;78.20;;;;;;1981469;28;20689;-76
2021/12/21 00:19:41;;;;;;;9.50;5.45;;;15.00;78.20;;;;;;1981434;28;20572;-76
2021/12/21 00:21:52;;;;;;;6.93;4.65;;;15.00;78.40;;;;;;1980653;29;20534;-75
2021/12/21 00:23:52;;;;;;;6.10;3.70;;;15.00;78.50;;;;;;1981286;28;20180;-75
2021/12/21 00:24:50;;;;;;;8.27;4.43;;;15.00;78.60;;;;;;1981431;28;20168;-75
2021/12/21 00:25:50;;;;;;;6.33;4.37;;;15.00;78.40;;;;;;1981280;28;20255;-75
2021/12/21 00:26:48;;;;;;;10.20;4.18;;;15.00;78.30;;;;;;1981219;28;20291;-75
2021/12/21 00:27:49;;;;;;;6.37;3.90;;;15.00;78.50;;;;;;1981341;28;20259;-75
2021/12/21 00:28:58;;;;;;;10.80;4.78;;;15.00;78.50;;;;;;1981304;28;20661;-75
2021/12/21 00:29:57;;;;;;;9.60;4.45;;;15.00;78.50;;;;;;1981440;28;20527;-75
2021/12/21 00:30:55;;;;;;;8.50;4.10;;;14.90;78.50;;;;;;1981194;29;20214;-75
2021/12/21 00:31:54;;;;;;;7.87;4.73;;;15.00;78.70;;;;;;1981237;28;20610;-75
2021/12/21 00:32:52;;;;;;;5.70;3.63;;;15.00;78.60;;;;;;1981508;28;20175;-74
2021/12/21 00:33:51;;;;;;;7.30;4.67;;;15.00;78.80;;;;;;1981482;28;20179;-74
2021/12/21 00:34:50;;;;;;;11.10;4.18;;;15.00;78.90;;;;;;1981342;28;20175;-74
2021/12/21 00:35:48;;;;;;;10.37;4.43;;;15.00;78.80;;;;;;1981667;28;20175;-75
2021/12/21 00:36:48;;;;;;;6.37;4.10;;;15.00;78.80;;;;;;1981223;28;20238;-75
2021/12/21 00:37:47;;;;;;;12.98;4.60;;;15.00;79.00;;;;;;1981332;28;20198;-75
2021/12/21 00:38:47;;;;;;;14.80;4.72;;;15.00;79.10;;;;;;1981163;28;20242;-74
2021/12/21 00:39:45;;;;;;;7.15;5.00;;;15.00;79.00;;;;;;1981244;28;20532;-75
2021/12/21 00:40:43;;;;;;;8.73;5.10;;;15.00;79.00;;;;;;1981230;28;20179;-74
2021/12/21 00:41:42;;;;;;;9.77;4.40;;;15.00;79.10;;;;;;1981532;28;20175;-75
2021/12/21 00:42:41;;;;;;;10.00;4.70;;;15.00;79.10;;;;;;1981300;28;20175;-73
2021/12/21 00:43:39;;;;;;;11.87;4.33;;;15.00;79.20;;;;;;1981344;28;20202;-74
2021/12/21 00:44:38;;;;;;;6.40;3.90;;;15.00;79.30;;;;;;1981299;28;20179;-75
2021/12/21 00:45:36;;;;;;;8.60;4.43;;;15.00;79.30;;;;;;1981319;28;20265;-73
2021/12/21 00:46:35;;;;;;;7.10;3.93;;;15.00;79.30;;;;;;1981162;28;20202;-74
2021/12/21 00:47:35;;;;;;;5.07;3.60;;;15.30;79.60;;;;;;1981172;28;20186;-75
2021/12/21 00:48:35;;;;;;;10.75;3.90;;;15.00;79.30;;;;;;1981140;29;20163;-75
2021/12/21 00:49:35;;;;;;;14.25;4.65;;;15.00;79.30;;;;;;1981319;28;20528;-75
2021/12/21 00:50:34;;;;;;;6.15;4.70;;;15.00;79.40;;;;;;1981226;28;20171;-76
2021/12/21 00:51:32;;;;;;;7.47;4.10;;;15.00;79.40;;;;;;1981192;28;20582;-74
2021/12/21 00:52:31;;;;;;;10.10;4.27;;;15.00;79.50;;;;;;1981274;28;20596;-76
2021/12/21 00:53:30;;;;;;;7.63;3.80;;;15.00;79.50;;;;;;1981237;28;20226;-76
2021/12/21 00:54:29;;;;;;;6.73;4.03;;;15.00;79.60;;;;;;1981387;28;20314;-77
2021/12/21 00:55:27;;;;;;;6.93;4.10;;;15.00;79.50;;;;;;1981321;28;20425;-76
2021/12/21 00:56:26;;;;;;;7.93;4.10;;;15.00;79.60;;;;;;1981115;28;20263;-76
2021/12/21 00:57:25;;;;;;;4.60;3.40;;;15.00;79.60;;;;;;1981223;28;20187;-76
2021/12/21 00:58:24;;;;;;;11.13;4.15;;;15.00;79.70;;;;;;1981149;28;20630;-75
2021/12/21 00:59:22;;;;;;;8.33;4.10;;;14.90;79.60;;;;;;1981134;28;20219;-75
2021/12/21 01:00:22;;;;;;;9.20;3.93;;;15.00;79.80;;;;;;1981290;28;20179;-77
2021/12/21 01:01:20;;;;;;;9.70;4.60;;;15.00;79.80;;;;;;1981211;28;20186;-76
2021/12/21 01:02:19;;;;;;;6.60;3.73;;;15.00;79.80;;;;;;1981306;28;20210;-74
2021/12/21 01:03:18;;;;;;;9.30;4.60;;;15.00;79.90;;;;;;1981324;28;20222;-74
2021/12/21 01:04:23;;;;;;;6.22;3.60;;;14.90;79.90;;;;;;1981144;28;20170;-74
2021/12/21 01:05:30;;;;;;;11.07;4.43;;;15.00;80.10;;;;;;1981386;28;20182;-76
2021/12/21 01:06:42;;;;;;;10.05;4.05;;;14.90;80.10;;;;;;1981182;28;20187;-74
2021/12/21 01:07:44;;;;;;;6.82;4.10;;;15.00;80.20;;;;;;1981436;28;20171;-76
2021/12/21 01:09:04;;;;;;;6.20;4.32;;;14.90;80.20;;;;;;1981124;28;20202;-75
2021/12/21 01:11:20;;;;;;;6.93;4.30;;;14.90;80.70;;;;;;1981402;28;20163;-74
2021/12/21 01:12:37;;;;;;;9.02;3.92;;;14.90;80.70;;;;;;1981123;28;20168;-73
2021/12/21 01:13:45;;;;;;;10.18;3.95;;;14.90;80.90;;;;;;1981305;28;20165;-73
2021/12/21 01:17:26;;;;;;;5.80;4.00;;;14.90;81.70;;;;;;1981312;29;20164;-75
2021/12/21 01:18:34;;;;;;;7.45;4.63;;;14.90;81.90;;;;;;1981294;28;20162;-76
2021/12/21 01:19:38;;;;;;;9.27;4.30;;;14.90;82.10;;;;;;1981146;28;20231;-75
2021/12/21 01:20:43;;;;;;;5.00;3.67;;;14.90;82.60;;;;;;1981087;28;20152;-74
2021/12/21 01:22:01;;;;;;;8.43;4.10;;;14.90;82.60;;;;;;1981162;28;20156;-76
2021/12/21 01:25:35;;;;;;;8.40;4.23;;;14.90;83.50;;;;;;1981340;28;20155;-75
2021/12/21 01:27:52;;;;;;;5.60;3.27;;;14.90;85.00;;;;;;1982887;28;20185;-75
2021/12/21 01:29:03;;;;;;;4.80;3.25;;;14.90;90.30;;;;;;1982771;28;20480;-75
2021/12/21 01:30:17;;;;;;;6.90;3.38;;;14.90;87.70;;;;;;1982736;28;20246;-75
2021/12/21 01:32:31;;;;;;;7.80;3.65;;;15.10;87.70;;;;;;1982665;28;20167;-76
2021/12/21 01:33:49;;;;;;;6.43;3.72;;;15.30;84.10;;;;;;1982544;28;20163;-75
2021/12/21 01:35:49;;;;;;;6.97;3.97;;;14.90;85.20;;;;;;1982727;28;20182;-74
2021/12/21 01:36:57;;;;;;;5.72;3.65;;;14.90;83.70;;;;;;1982351;29;20195;-75
2021/12/21 01:38:05;;;;;;;8.45;4.40;;;14.90;85.00;;;;;;1982724;29;20152;-74
2021/12/21 01:41:01;;;;;;;6.38;3.85;;;14.90;83.30;;;;;;1982856;28;20203;-74
2021/12/21 01:41:56;;;;;;;6.63;3.30;;;15.10;83.90;;;;;;1982457;29;20193;-74
2021/12/21 01:43:15;;;;;;;5.72;3.55;;;14.80;85.30;;;;;;1982782;28;20159;-74
2021/12/21 01:49:44;;;;;;;4.80;3.20;;;14.90;82.90;;;;;;1987042;29;20160;-75
2021/12/21 01:50:43;;;;;;;5.75;4.18;;;14.80;83.10;;;;;;1985130;28;20603;-75
2021/12/21 01:51:41;;;;;;;7.80;4.47;;;14.90;83.60;;;;;;1983978;28;20655;-74
2021/12/21 01:52:40;;;;;;;5.90;3.37;;;15.00;84.10;;;;;;1983011;29;20611;-75
2021/12/21 01:53:40;;;;;;;6.80;3.70;;;15.00;84.60;;;;;;1982099;29;20682;-74
2021/12/21 01:54:40;;;;;;;4.85;3.20;;;14.80;85.50;;;;;;1982543;29;20217;-76
2021/12/21 01:55:39;;;;;;;8.75;3.50;;;14.80;84.70;;;;;;1982590;28;20179;-75
2021/12/21 01:56:38;;;;;;;6.57;3.73;;;14.80;84.90;;;;;;1982570;28;20226;-74
2021/12/21 01:57:36;;;;;;;4.50;3.70;;;14.80;84.50;;;;;;1982722;28;20493;-75
2021/12/21 01:58:37;;;;;;;4.50;2.90;;;14.80;85.10;;;;;;1982507;28;20202;-74
2021/12/21 01:59:37;;;;;;;6.90;3.42;;;14.80;79.90;;;;;;1982944;28;20720;-74
2021/12/21 02:00:37;;;;;;;14.45;2.95;;;14.90;80.70;;;;;;1982893;28;20203;-74
2021/12/21 02:01:35;;;;;;;9.85;4.25;;;14.90;80.80;;;;;;1983142;28;20636;-75
2021/12/21 02:02:34;;;;;;;6.50;3.50;;;14.90;81.10;;;;;;1983287;28;20243;-75
2021/12/21 02:03:33;;;;;;;5.13;3.40;;;14.90;81.60;;;;;;1982837;28;20243;-74
2021/12/21 02:04:31;;;;;;;7.20;4.00;;;14.90;82.00;;;;;;1982731;28;20665;-74
2021/12/21 02:05:30;;;;;;;5.37;2.93;;;14.80;82.80;;;;;;1982890;28;20499;-76
2021/12/21 02:06:29;;;;;;;5.63;3.50;;;14.80;84.40;;;;;;1982389;28;20207;-75
2021/12/21 02:07:28;;;;;;;4.72;2.88;;;14.80;84.10;;;;;;1982350;28;20179;-75
2021/12/21 02:08:26;;;;;;;4.20;3.63;;;14.90;84.40;;;;;;1982491;28;20255;-75
2021/12/21 02:09:33;;;;;;;6.47;3.50;;;14.80;84.50;;;;;;1982482;28;20179;-74
2021/12/21 02:10:32;;;;;;;6.18;3.45;;;14.80;83.50;;;;;;1982475;28;20671;-74
2021/12/21 02:11:30;;;;;;;5.27;2.80;;;14.80;86.90;;;;;;1982315;28;20187;-75
2021/12/21 02:12:29;;;;;;;5.10;3.03;;;14.90;90.10;;;;;;1981658;28;20878;-76
2021/12/21 02:13:32;;;;;;;5.30;3.43;;;14.80;88.10;;;;;;1981888;29;20178;-73
2021/12/21 02:14:32;;;;;;;8.35;4.50;;;14.80;87.70;;;;;;1981818;29;20210;-74
2021/12/21 02:15:31;;;;;;;7.07;3.20;;;14.80;87.50;;;;;;1981770;29;20183;-75
2021/12/21 02:16:39;;;;;;;4.73;3.60;;;14.80;87.80;;;;;;1982205;29;20223;-74
2021/12/21 02:18:06;;;;;;;4.05;2.88;;;14.80;88.30;;;;;;1982414;28;20238;-75
2021/12/21 02:19:06;;;;;;;6.22;3.38;;;14.80;88.50;;;;;;1982054;28;20334;-76
2021/12/21 02:20:54;;;;;;;4.47;3.50;;;14.70;90.20;;;;;;1982299;28;20148;-75
2021/12/21 02:22:31;;;;;;;8.53;3.67;;;14.70;90.40;;;;;;1982291;28;20167;-73
2021/12/21 02:23:35;;;;;;;4.10;3.00;;;15.00;90.50;;;;;;1982266;28;20627;-74
2021/12/21 02:24:45;;;;;;;5.85;3.53;;;14.70;90.60;;;;;;1982416;28;20287;-74
2021/12/21 02:27:06;;;;;;;7.18;3.25;;;14.70;91.20;;;;;;1982362;28;20651;-73
2021/12/21 02:30:15;;;;;;;2.88;2.60;;;14.40;90.20;;;;;;1982475;28;20266;-76
2021/12/21 02:31:16;;;;;;;7.10;3.53;;;14.70;90.90;;;;;;1981989;29;20552;-74
2021/12/21 02:32:15;;;;;;;5.38;3.28;;;14.70;91.90;;;;;;1982141;28;20581;-75
2021/12/21 02:33:15;;;;;;;4.13;3.20;;;14.70;83.80;;;;;;1982228;28;20195;-75
2021/12/21 02:34:14;;;;;;;4.85;3.35;;;14.70;82.00;;;;;;1982085;28;20415;-75
2021/12/21 02:35:13;;;;;;;8.48;3.50;;;14.70;81.10;;;;;;1982107;28;20191;-74
2021/12/21 02:36:11;;;;;;;5.20;3.30;;;14.90;80.80;;;;;;1981449;28;20179;-74
2021/12/21 02:37:10;;;;;;;5.27;3.03;;;14.70;80.20;;;;;;1980885;28;20624;-74
2021/12/21 02:38:10;;;;;;;5.20;3.40;;;14.70;80.20;;;;;;1981200;29;20254;-74
2021/12/21 02:39:08;;;;;;;4.70;2.75;;;15.00;80.30;;;;;;1982152;29;20541;-75
2021/12/21 02:40:08;;;;;;;4.87;3.93;;;14.70;79.80;;;;;;1982170;28;20251;-76
2021/12/21 02:41:08;;;;;;;5.53;3.03;;;14.70;79.60;;;;;;1982138;28;20948;-73
2021/12/21 02:42:07;;;;;;;5.80;3.80;;;14.70;79.50;;;;;;1981421;29;20338;-75
2021/12/21 02:43:06;;;;;;;6.83;3.20;;;14.70;79.50;;;;;;1981468;29;20367;-75
2021/12/21 02:44:05;;;;;;;7.07;3.00;;;14.70;79.20;;;;;;1981611;29;20970;-75
2021/12/21 02:45:05;;;;;;;5.47;3.13;;;14.70;79.20;;;;;;1982196;29;20322;-75
2021/12/21 02:46:04;;;;;;;10.02;3.30;;;14.70;79.00;;;;;;1981970;28;20418;-75
2021/12/21 02:47:03;;;;;;;5.43;3.65;;;14.70;79.10;;;;;;1981994;28;20643;-75
2021/12/21 02:48:02;;;;;;;5.03;3.00;;;14.70;79.20;;;;;;1981435;29;20201;-75
2021/12/21 02:49:01;;;;;;;6.73;3.60;;;14.70;79.10;;;;;;1981459;29;20559;-74
2021/12/21 02:49:59;;;;;;;6.10;3.20;;;14.70;79.20;;;;;;1981959;29;20837;-75
2021/12/21 02:50:58;;;;;;;4.00;2.90;;;14.70;79.20;;;;;;1982078;28;20171;-74
2021/12/21 02:51:56;;;;;;;6.00;3.20;;;14.60;78.90;;;;;;1982053;28;20183;-74
2021/12/21 02:52:55;;;;;;;5.00;3.30;;;14.60;79.10;;;;;;1982034;28;20179;-74
2021/12/21 02:53:54;;;;;;;5.37;3.23;;;14.70;79.20;;;;;;1981308;29;20182;-75
2021/12/21 02:54:52;;;;;;;5.57;2.50;;;14.70;79.10;;;;;;1981512;29;20547;-74
2021/12/21 02:55:51;;;;;;;4.10;2.67;;;14.70;79.00;;;;;;1981937;29;20172;-75
2021/12/21 02:56:49;;;;;;;3.73;2.70;;;14.70;78.80;;;;;;1982002;28;20199;-75
2021/12/21 02:57:48;;;;;;;3.83;2.77;;;14.80;78.90;;;;;;1982081;28;20532;-75
2021/12/21 02:58:46;;;;;;;3.37;2.80;;;14.80;78.90;;;;;;1981983;28;20167;-75
2021/12/21 02:59:45;;;;;;;5.17;3.27;;;14.80;79.00;;;;;;1982057;28;20167;-75
2021/12/21 03:00:43;;;;;;;5.30;3.60;;;14.80;78.90;;;;;;1982188;28;20168;-74
2021/12/21 03:01:42;;;;;;;6.70;3.20;;;14.80;78.80;;;;;;1982212;28;20180;-75
2021/12/21 03:02:41;;;;;;;4.57;3.10;;;14.80;79.00;;;;;;1981962;28;20217;-75
2021/12/21 03:03:39;;;;;;;5.13;2.73;;;14.80;78.80;;;;;;1982030;28;20225;-75
2021/12/21 03:04:43;;;;;;;6.83;2.83;;;14.80;78.80;;;;;;1982078;28;20167;-75
2021/12/21 03:05:49;;;;;;;4.90;2.78;;;14.80;78.70;;;;;;1981958;28;20164;-75
2021/12/21 03:08:11;;;;;;;3.63;2.60;;;14.80;78.60;;;;;;1981423;29;20507;-75
2021/12/21 03:09:55;;;;;;;10.20;3.90;;;14.80;78.40;;;;;;1981989;28;20179;-75
2021/12/21 03:10:31;;;;;;;6.50;3.17;;;14.80;78.60;;;;;;1981338;29;20182;-75
2021/12/21 03:11:48;;;;;;;3.20;2.80;;;14.90;78.60;;;;;;1982014;28;20657;-75
2021/12/21 03:14:03;;;;;;;4.47;2.95;;;14.70;78.30;;;;;;1982049;28;20591;-75
2021/12/21 03:15:02;;;;;;;4.28;3.08;;;14.40;78.20;;;;;;1982043;28;20156;-75
2021/12/21 03:16:00;;;;;;;4.60;2.73;;;14.70;78.40;;;;;;1981650;28;20190;-75
2021/12/21 03:16:59;;;;;;;3.87;2.77;;;14.70;78.20;;;;;;1981910;28;20182;-76
2021/12/21 03:17:58;;;;;;;3.25;2.53;;;14.90;78.60;;;;;;1982020;28;20179;-76
2021/12/21 03:18:58;;;;;;;5.53;2.97;;;14.70;78.50;;;;;;1982032;28;20257;-74
2021/12/21 03:19:57;;;;;;;4.72;3.13;;;14.70;78.30;;;;;;1981848;28;20163;-74
2021/12/21 03:20:55;;;;;;;4.77;2.80;;;14.70;78.40;;;;;;1981897;28;20254;-74
2021/12/21 03:21:54;;;;;;;7.37;2.60;;;14.70;78.40;;;;;;1981860;28;20212;-76
2021/12/21 03:22:52;;;;;;;5.40;2.73;;;14.50;78.00;;;;;;1981812;28;20226;-74
2021/12/21 03:23:51;;;;;;;4.77;2.90;;;14.70;78.40;;;;;;1981892;28;20176;-76
2021/12/21 03:24:49;;;;;;;6.30;2.93;;;14.70;78.50;;;;;;1981902;28;20197;-74
2021/12/21 03:25:48;;;;;;;5.00;2.70;;;14.70;78.50;;;;;;1982728;28;20254;-75
2021/12/21 03:26:47;;;;;;;9.40;3.10;;;14.60;78.60;;;;;;1981974;28;20194;-74
2021/12/21 03:27:45;;;;;;;3.70;2.50;;;14.70;78.50;;;;;;1981382;29;20171;-75
2021/12/21 03:28:44;;;;;;;5.37;2.77;;;14.70;78.50;;;;;;1981890;29;20568;-74
2021/12/21 03:29:42;;;;;;;6.87;2.60;;;14.60;78.40;;;;;;1983529;29;20266;-74
2021/12/21 03:30:41;;;;;;;4.83;3.10;;;14.60;78.60;;;;;;1983336;28;20223;-75
2021/12/21 03:31:39;;;;;;;5.60;2.67;;;14.70;78.70;;;;;;1982194;28;20269;-75
2021/12/21 03:32:38;;;;;;;6.30;2.37;;;14.60;78.60;;;;;;1982166;28;20172;-75
2021/12/21 03:33:37;;;;;;;6.93;2.60;;;14.60;78.50;;;;;;1981917;28;20273;-74
2021/12/21 03:34:35;;;;;;;2.70;2.43;;;14.70;79.20;;;;;;1982054;28;20220;-75
2021/12/21 03:35:34;;;;;;;4.90;2.60;;;14.70;78.60;;;;;;1982897;28;20273;-75
2021/12/21 03:36:33;;;;;;;3.40;2.33;;;14.70;78.60;;;;;;1982359;28;20920;-74
2021/12/21 03:37:32;;;;;;;4.90;2.80;;;14.70;78.60;;;;;;1982622;28;20202;-74
2021/12/21 03:38:31;;;;;;;5.10;2.87;;;14.70;78.30;;;;;;1982975;28;20411;-75
2021/12/21 03:39:29;;;;;;;3.50;2.42;;;14.60;78.40;;;;;;1984699;28;20202;-73
2021/12/21 03:40:32;;;;;;;4.90;2.57;;;15.00;78.80;;;;;;1990950;28;20202;-72
2021/12/21 03:41:31;;;;;;;2.95;2.25;;;14.60;78.40;;;;;;1991053;28;20167;-72
2021/12/21 03:42:30;;;;;;;4.43;2.72;;;14.60;78.50;;;;;;1991092;28;20195;-72
2021/12/21 03:43:31;;;;;;;5.23;3.17;;;14.60;78.50;;;;;;1991126;28;20185;-72
2021/12/21 03:44:30;;;;;;;7.25;3.10;;;14.70;78.60;;;;;;1991173;28;20438;-72
2021/12/21 03:45:32;;;;;;;4.37;2.10;;;14.70;78.50;;;;;;1990966;28;20194;-71
2021/12/21 03:46:32;;;;;;;2.75;2.20;;;14.70;78.30;;;;;;1990809;28;20183;-73
2021/12/21 03:47:31;;;;;;;4.70;2.70;;;14.70;78.40;;;;;;1990450;28;20218;-72
2021/12/21 03:48:30;;;;;;;5.22;2.80;;;14.70;78.50;;;;;;1990211;28;20227;-72
2021/12/21 03:50:33;;;;;;;3.80;2.78;;;14.80;78.60;;;;;;1990685;28;20167;-74
2021/12/21 03:51:31;;;;;;;3.73;2.83;;;14.70;78.50;;;;;;1989919;28;20201;-75
2021/12/21 03:52:30;;;;;;;3.13;2.20;;;14.90;78.60;;;;;;1990035;28;20232;-74
2021/12/21 03:53:28;;;;;;;6.47;3.40;;;14.70;78.20;;;;;;1989676;28;20242;-75
2021/12/21 03:54:27;;;;;;;5.00;2.47;;;14.70;78.30;;;;;;1989805;28;20179;-74
2021/12/21 03:55:25;;;;;;;3.83;2.33;;;14.70;78.60;;;;;;1989425;28;20163;-73
2021/12/21 03:56:37;;;;;;;5.17;2.80;;;14.80;78.70;;;;;;1989264;28;20218;-74
2021/12/21 03:57:35;;;;;;;4.68;2.80;;;14.70;78.50;;;;;;1982063;28;20187;-75
2021/12/21 03:58:34;;;;;;;5.60;2.83;;;14.70;78.70;;;;;;1982213;28;20183;-76
2021/12/21 03:59:32;;;;;;;7.83;2.60;;;14.70;78.50;;;;;;1982502;28;20206;-75
2021/12/21 04:00:31;;;;;;;5.60;2.90;;;14.70;78.40;;;;;;1983100;28;20615;-75
2021/12/21 04:01:30;;;;;;;5.47;2.63;;;14.70;78.50;;;;;;1983333;28;20198;-73
2021/12/21 04:02:29;;;;;;;8.67;3.00;;;14.70;78.50;;;;;;1983041;28;20250;-75
2021/12/21 04:03:28;;;;;;;4.03;3.15;;;14.70;78.50;;;;;;1982359;28;20167;-75
2021/12/21 04:04:27;;;;;;;3.00;2.40;;;14.70;78.60;;;;;;1982137;28;20548;-77
2021/12/21 04:05:25;;;;;;;6.70;2.50;;;14.70;78.50;;;;;;1982555;28;20175;-76
2021/12/21 04:06:24;;;;;;;4.30;2.60;;;14.70;78.50;;;;;;1982721;28;20314;-76
2021/12/21 04:07:23;;;;;;;3.07;2.40;;;14.70;78.50;;;;;;1982478;28;20175;-75
2021/12/21 04:08:21;;;;;;;4.40;3.23;;;14.70;78.50;;;;;;1982755;28;20446;-74
2021/12/21 04:09:20;;;;;;;5.10;2.93;;;14.70;78.50;;;;;;1982838;28;20343;-74
2021/12/21 04:10:19;;;;;;;3.60;2.90;;;14.80;78.60;;;;;;1982477;28;20189;-74
2021/12/21 04:11:17;;;;;;;3.93;2.17;;;14.70;78.50;;;;;;1982386;28;20263;-75
2021/12/21 04:12:17;;;;;;;4.20;2.60;;;14.80;78.70;;;;;;1982968;28;20207;-74
2021/12/21 04:13:15;;;;;;;6.50;3.20;;;14.90;78.70;;;;;;1982358;28;20187;-75
2021/12/21 04:14:16;;;;;;;5.90;2.60;;;14.70;78.70;;;;;;1982064;29;20269;-75
2021/12/21 04:15:16;;;;;;;4.00;2.30;;;14.70;78.60;;;;;;1982124;29;20176;-75
2021/12/21 04:16:15;;;;;;;5.03;2.22;;;14.70;78.70;;;;;;1982293;28;20185;-75
2021/12/21 04:17:24;;;;;;;5.60;3.60;;;14.70;78.70;;;;;;1981844;29;20183;-75
2021/12/21 04:18:23;;;;;;;4.72;2.83;;;14.70;78.90;;;;;;1982434;29;20505;-75
2021/12/21 04:19:22;;;;;;;6.05;2.55;;;14.70;78.90;;;;;;1983179;28;20210;-75
2021/12/21 04:20:21;;;;;;;4.23;2.43;;;14.70;79.10;;;;;;1983404;28;20168;-73
2021/12/21 04:21:20;;;;;;;3.77;2.50;;;14.70;79.60;;;;;;1981872;28;20171;-75
2021/12/21 04:22:19;;;;;;;4.22;2.40;;;14.70;79.00;;;;;;1981648;28;20254;-75
2021/12/21 04:23:18;;;;;;;5.82;2.50;;;14.70;78.80;;;;;;1981515;28;20179;-74
2021/12/21 04:24:17;;;;;;;3.67;2.23;;;14.70;78.90;;;;;;1981783;28;20174;-75
2021/12/21 04:25:15;;;;;;;3.47;2.20;;;14.70;79.00;;;;;;1981895;28;20893;-76
2021/12/21 04:26:16;;;;;;;5.13;2.57;;;14.80;79.20;;;;;;1981763;28;20530;-76
2021/12/21 04:27:15;;;;;;;3.20;2.75;;;14.70;79.00;;;;;;1981665;28;20638;-76
2021/12/21 04:28:14;;;;;;;4.30;2.75;;;14.80;79.10;;;;;;1981784;28;20179;-76
2021/12/21 04:29:13;;;;;;;3.73;2.00;;;14.70;79.20;;;;;;1981823;28;20187;-76
2021/12/21 04:30:11;;;;;;;2.92;2.28;;;14.80;79.30;;;;;;1982305;28;20574;-76
2021/12/21 04:31:10;;;;;;;4.10;2.67;;;15.00;79.50;;;;;;1984477;28;20207;-72
2021/12/21 04:32:09;;;;;;;2.43;2.07;;;14.70;79.20;;;;;;1990993;28;20178;-71
2021/12/21 04:33:07;;;;;;;3.67;3.10;;;14.70;79.40;;;;;;1990642;28;20435;-73
2021/12/21 04:34:06;;;;;;;4.73;2.60;;;14.70;79.20;;;;;;1990939;28;20195;-71
2021/12/21 04:35:05;;;;;;;5.80;2.50;;;14.70;79.00;;;;;;1991014;28;20206;-71
2021/12/21 04:36:04;;;;;;;4.00;2.67;;;14.70;79.30;;;;;;1991000;28;20179;-71
2021/12/21 04:37:03;;;;;;;4.72;2.65;;;14.70;79.40;;;;;;1990983;28;20423;-72
2021/12/21 04:38:19;;;;;;;3.53;2.60;;;14.70;79.30;;;;;;1990594;28;20190;-71
2021/12/21 04:39:34;;;;;;;3.15;2.22;;;14.70;79.10;;;;;;1990735;28;20228;-72
2021/12/21 04:40:40;;;;;;;2.63;2.10;;;14.70;79.30;;;;;;1991091;28;20143;-71
2021/12/21 04:41:40;;;;;;;6.85;2.95;;;14.70;79.40;;;;;;1990934;28;20174;-72
2021/12/21 04:42:38;;;;;;;4.03;2.42;;;14.70;79.40;;;;;;1990781;28;20187;-71
2021/12/21 04:43:37;;;;;;;6.80;2.40;;;14.70;79.30;;;;;;1990805;28;20171;-71
2021/12/21 04:44:36;;;;;;;4.88;2.70;;;14.80;79.40;;;;;;1990693;28;20206;-73
2021/12/21 04:45:36;;;;;;;4.63;2.20;;;14.70;79.60;;;;;;1990698;28;20171;-71
2021/12/21 04:46:34;;;;;;;2.83;2.53;;;14.70;79.60;;;;;;1990655;28;20495;-74
2021/12/21 04:47:33;;;;;;;5.87;2.27;;;14.70;79.30;;;;;;1990646;28;20189;-72
2021/12/21 04:48:32;;;;;;;3.47;2.40;;;14.80;79.30;;;;;;1990662;28;20183;-72
2021/12/21 04:49:30;;;;;;;4.97;2.60;;;14.80;79.20;;;;;;1990980;28;20194;-71
2021/12/21 04:50:29;;;;;;;5.90;3.00;;;14.70;79.00;;;;;;1990228;28;20189;-74
2021/12/21 04:51:27;;;;;;;3.93;2.80;;;14.80;79.20;;;;;;1989585;29;20175;-74
2021/12/21 04:52:26;;;;;;;3.73;2.50;;;14.80;79.20;;;;;;1989675;29;20183;-73
2021/12/21 04:53:24;;;;;;;4.00;2.33;;;14.70;78.80;;;;;;1989913;29;20179;-73
2021/12/21 04:54:24;;;;;;;4.80;2.83;;;14.80;78.90;;;;;;1989657;28;20190;-74
2021/12/21 04:55:23;;;;;;;2.85;2.50;;;14.70;78.90;;;;;;1986260;28;20509;-75
2021/12/21 04:56:21;;;;;;;3.33;2.50;;;14.70;78.90;;;;;;1981049;28;20319;-74
2021/12/21 04:57:19;;;;;;;3.00;2.57;;;14.70;79.10;;;;;;1981484;28;20183;-76
2021/12/21 04:58:18;;;;;;;4.87;2.30;;;14.70;79.10;;;;;;1981239;28;20175;-75
2021/12/21 04:59:17;;;;;;;4.87;2.37;;;14.70;78.80;;;;;;1981115;28;20686;-74
2021/12/21 05:00:16;;;;;;;5.10;2.50;;;14.70;78.80;;;;;;1981204;28;20474;-76
2021/12/21 05:01:14;;;;;;;3.13;2.50;;;14.70;78.90;;;;;;1982396;28;20179;-75
2021/12/21 05:02:13;;;;;;;3.67;2.37;;;14.70;79.00;;;;;;1982813;28;20497;-74
2021/12/21 05:03:11;;;;;;;3.43;2.57;;;14.80;79.60;;;;;;1983051;28;20179;-74
2021/12/21 05:04:10;;;;;;;4.40;2.90;;;14.70;79.40;;;;;;1982918;28;20248;-74
2021/12/21 05:05:09;;;;;;;6.23;2.40;;;14.70;79.50;;;;;;1982699;28;20214;-76
2021/12/21 05:06:07;;;;;;;4.93;2.70;;;14.70;79.80;;;;;;1982676;28;20263;-74
2021/12/21 05:07:06;;;;;;;2.53;2.10;;;14.90;80.10;;;;;;1982729;28;20202;-73
2021/12/21 05:08:08;;;;;;;4.53;2.43;;;14.70;79.90;;;;;;1982809;28;20528;-73
2021/12/21 05:09:12;;;;;;;5.30;2.70;;;14.70;80.50;;;;;;1982728;28;20175;-74
2021/12/21 05:10:12;;;;;;;2.75;2.42;;;14.70;81.80;;;;;;1982301;29;20302;-74
2021/12/21 05:11:14;;;;;;;3.22;2.03;;;14.70;77.40;;;;;;1982146;28;20263;-74
2021/12/21 05:12:13;;;;;;;5.05;2.88;;;14.70;76.40;;;;;;1982304;29;20202;-75
2021/12/21 05:13:12;;;;;;;4.10;2.47;;;14.70;76.30;;;;;;1982686;29;20537;-75
2021/12/21 05:14:11;;;;;;;4.53;2.95;;;14.70;76.30;;;;;;1982954;28;20182;-73
2021/12/21 05:15:09;;;;;;;6.27;2.77;;;14.70;76.40;;;;;;1982956;28;20642;-76
2021/12/21 05:16:09;;;;;;;3.80;2.57;;;14.60;76.30;;;;;;1982752;28;20634;-75
2021/12/21 05:17:08;;;;;;;4.00;2.03;;;14.70;76.40;;;;;;1982750;28;20179;-74
2021/12/21 05:18:07;;;;;;;3.50;2.53;;;14.70;76.50;;;;;;1982808;28;20189;-75
2021/12/21 05:19:05;;;;;;;2.30;1.97;;;14.70;76.40;;;;;;1982803;28;20255;-74
2021/12/21 05:20:05;;;;;;;3.20;2.13;;;14.70;76.30;;;;;;1982837;28;20178;-75
2021/12/21 05:21:04;;;;;;;2.67;2.05;;;14.70;76.50;;;;;;1982808;28;20898;-75
2021/12/21 05:22:03;;;;;;;4.38;2.50;;;14.70;76.60;;;;;;1982761;28;20187;-76
2021/12/21 05:23:02;;;;;;;3.83;2.77;;;14.70;76.60;;;;;;1982769;28;20578;-75
2021/12/21 05:24:00;;;;;;;3.03;2.20;;;14.70;76.70;;;;;;1981470;29;20407;-76
2021/12/21 05:24:59;;;;;;;4.40;2.80;;;14.70;76.50;;;;;;1981259;29;20410;-75
2021/12/21 05:25:57;;;;;;;3.30;2.47;;;14.70;76.60;;;;;;1981854;29;20171;-75
2021/12/21 05:26:57;;;;;;;4.00;2.17;;;14.70;76.60;;;;;;1982678;28;20178;-75
2021/12/21 05:27:55;;;;;;;2.65;2.28;;;14.70;76.60;;;;;;1982720;28;20179;-75
2021/12/21 05:28:54;;;;;;;3.50;2.47;;;14.70;76.50;;;;;;1982786;28;20207;-75
2021/12/21 05:29:52;;;;;;;4.23;2.17;;;14.70;76.60;;;;;;1982658;28;20183;-76
2021/12/21 05:30:51;;;;;;;3.63;2.83;;;14.70;76.50;;;;;;1982366;28;20175;-75
2021/12/21 05:31:50;;;;;;;5.33;2.60;;;14.70;76.60;;;;;;1981774;28;20281;-75
2021/12/21 05:32:50;;;;;;;4.78;2.70;;;14.80;76.60;;;;;;1982582;28;20203;-77
2021/12/21 05:33:51;;;;;;;2.70;2.28;;;14.80;76.60;;;;;;1982833;28;20266;-75
2021/12/21 05:34:50;;;;;;;2.85;2.40;;;14.70;76.80;;;;;;1982356;29;20182;-76
2021/12/21 05:35:48;;;;;;;2.80;2.00;;;14.70;76.60;;;;;;1982123;29;20175;-75
2021/12/21 05:36:47;;;;;;;3.07;2.30;;;14.70;76.70;;;;;;1982556;29;20187;-74
2021/12/21 05:37:47;;;;;;;3.80;2.90;;;14.70;76.70;;;;;;1982738;28;20179;-76
2021/12/21 05:38:50;;;;;;;2.78;2.50;;;14.70;76.60;;;;;;1982726;28;20674;-74
2021/12/21 05:40:09;;;;;;;2.95;2.20;;;14.70;76.60;;;;;;1982465;28;20207;-77
2021/12/21 05:41:16;;;;;;;2.78;2.08;;;14.70;76.50;;;;;;1982598;28;20175;-75
2021/12/21 05:42:15;;;;;;;3.67;2.35;;;14.70;76.60;;;;;;1982728;28;20206;-77
2021/12/21 05:43:14;;;;;;;2.83;2.30;;;14.70;76.70;;;;;;1982838;28;20183;-76
2021/12/21 05:44:14;;;;;;;4.32;2.33;;;14.70;76.60;;;;;;1982724;28;20266;-74
2021/12/21 05:45:15;;;;;;;3.65;2.10;;;14.70;76.90;;;;;;1982640;28;20179;-77